createdAt,value
2019-06-10T00:01:26.735Z,6.03
2019-06-10T00:03:56.069Z,5.10
2019-06-10T00:06:25.366Z,3.77
2019-06-10T00:08:55.955Z,5.77
2019-06-10T00:11:25.674Z,4.93
2019-06-10T00:14:07.391Z,3.77
2019-06-10T00:16:36.822Z,4.83
2019-06-10T00:21:54.401Z,4.57
2019-06-10T00:29:47.326Z,4.63
2019-06-10T00:32:16.640Z,5.53
2019-06-10T00:34:45.946Z,6.70
2019-06-10T00:37:15.225Z,5.17
2019-06-10T00:39:44.525Z,4.03
2019-06-10T00:42:15.222Z,4.20
2019-06-10T00:44:44.842Z,5.63
2019-06-10T00:47:15.197Z,4.77
2019-06-10T00:49:45.131Z,5.70
2019-06-10T00:52:14.468Z,7.07
2019-06-10T00:54:43.854Z,7.40
2019-06-10T00:57:13.771Z,5.93
2019-06-10T00:59:44.149Z,5.07
2019-06-10T01:02:14.549Z,3.50
2019-06-10T01:04:44.496Z,6.80
2019-06-10T01:07:14.845Z,5.63
2019-06-10T01:09:44.836Z,3.97
2019-06-10T01:12:14.946Z,4.17
2019-06-10T01:14:56.553Z,4.23
2019-06-10T01:17:25.861Z,5.77
2019-06-10T01:20:15.942Z,3.37
2019-06-10T01:22:45.220Z,3.50
2019-06-10T01:25:15.044Z,4.90
2019-06-10T01:27:45.492Z,5.43
2019-06-10T01:32:50.648Z,4.60
2019-06-10T01:35:21.174Z,10.23
2019-06-10T01:37:51.983Z,8.40
2019-06-10T01:40:21.508Z,4.77
2019-06-10T01:42:50.797Z,4.97
2019-06-10T01:45:21.302Z,8.93
2019-06-10T01:47:51.244Z,3.60
2019-06-10T01:50:21.780Z,4.83
2019-06-10T01:52:51.723Z,6.10
2019-06-10T01:55:21.847Z,3.97
2019-06-10T01:58:14.694Z,4.50
2019-06-10T02:01:01.462Z,5.83
2019-06-10T02:03:31.584Z,7.93
2019-06-10T02:06:02.028Z,4.50
2019-06-10T02:08:31.787Z,5.67
2019-06-10T02:11:02.309Z,5.87
2019-06-10T02:13:32.858Z,7.43
2019-06-10T02:19:04.314Z,7.20
2019-06-10T02:24:23.551Z,6.90
2019-06-10T02:26:53.995Z,6.30
2019-06-10T02:29:23.696Z,7.80
2019-06-10T02:31:54.273Z,3.57
2019-06-10T02:34:27.325Z,7.60
2019-06-10T02:36:54.618Z,3.80
2019-06-10T02:39:32.234Z,7.33
2019-06-10T02:44:37.500Z,7.10
2019-06-10T02:47:04.193Z,6.00
2019-06-10T02:49:50.743Z,8.20
2019-06-10T02:52:20.066Z,4.73
2019-06-10T02:55:31.034Z,7.77
2019-06-10T02:57:59.333Z,4.20
2019-06-10T03:00:39.618Z,5.90
2019-06-10T03:02:59.626Z,9.07
2019-06-10T03:05:47.972Z,5.73
2019-06-10T03:08:18.492Z,4.30
2019-06-10T03:10:48.276Z,4.60
2019-06-10T03:13:17.649Z,7.33
2019-06-10T03:18:25.987Z,5.23
2019-06-10T03:20:56.515Z,6.67
2019-06-10T03:26:15.165Z,4.93
2019-06-10T03:28:45.063Z,6.63
2019-06-10T03:31:15.562Z,6.03
2019-06-10T03:33:47.753Z,9.00
2019-06-10T03:36:16.364Z,7.77
2019-06-10T03:38:45.701Z,5.90
2019-06-10T03:41:14.997Z,7.23
2019-06-10T03:43:44.268Z,4.00
2019-06-10T03:46:13.862Z,4.07
2019-06-10T03:48:44.605Z,7.53
2019-06-10T03:51:13.882Z,4.33
2019-06-10T03:53:43.149Z,9.50
2019-06-10T03:56:12.979Z,5.37
2019-06-10T03:58:43.433Z,6.83
2019-06-10T04:01:12.714Z,5.57
2019-06-10T04:03:42.806Z,9.40
2019-06-10T04:06:13.262Z,6.00
2019-06-10T04:08:44.035Z,8.03
2019-06-10T04:11:13.344Z,7.10
2019-06-10T04:13:43.216Z,9.87
2019-06-10T04:16:13.683Z,7.83
2019-06-10T04:18:43.254Z,7.67
2019-06-10T04:21:14.027Z,8.13
2019-06-10T04:23:43.347Z,6.83
2019-06-10T04:26:12.989Z,9.77
2019-06-10T04:28:43.709Z,7.97
2019-06-10T04:31:13.308Z,7.97
2019-06-10T04:33:44.046Z,5.47
2019-06-10T04:36:13.668Z,9.83
2019-06-10T04:38:44.384Z,10.33
2019-06-10T04:41:13.683Z,5.30
2019-06-10T04:43:43.397Z,9.03
2019-06-10T04:46:26.780Z,5.80
2019-06-10T04:48:56.483Z,8.00
2019-06-10T04:51:26.868Z,8.03
2019-06-10T04:53:56.793Z,7.23
2019-06-10T04:56:27.553Z,5.33
2019-06-10T04:58:57.100Z,6.00
2019-06-10T05:01:27.441Z,7.67
2019-06-10T05:03:57.396Z,2.30
2019-06-10T05:09:14.977Z,4.37
2019-06-10T05:11:44.270Z,6.53
2019-06-10T05:14:13.614Z,4.87
2019-06-10T05:17:02.271Z,4.17
2019-06-10T05:19:33.775Z,9.27
2019-06-10T05:22:03.237Z,5.23
2019-06-10T05:27:34.621Z,5.20
2019-06-10T05:33:13.432Z,6.53
2019-06-10T05:35:43.615Z,5.40
2019-06-10T05:38:13.081Z,5.97
2019-06-10T05:40:42.797Z,4.53
2019-06-10T05:43:13.064Z,5.87
2019-06-10T05:45:43.227Z,4.37
2019-06-10T05:48:16.606Z,6.97
2019-06-10T05:50:43.555Z,5.67
2019-06-10T05:53:13.165Z,4.60
2019-06-10T05:55:43.988Z,4.47
2019-06-10T05:58:13.321Z,10.30
2019-06-10T06:00:42.924Z,3.17
2019-06-10T06:03:13.640Z,10.73
2019-06-10T06:05:43.721Z,6.53
2019-06-10T06:08:13.025Z,2.53
2019-06-10T06:10:42.548Z,3.97
2019-06-10T06:13:12.659Z,5.40
2019-06-10T06:15:42.823Z,4.87
2019-06-10T06:18:14.099Z,8.73
2019-06-10T06:20:43.725Z,2.83
2019-06-10T06:23:14.227Z,4.20
2019-06-10T06:25:46.870Z,2.37
2019-06-10T06:28:16.212Z,4.90
2019-06-10T06:30:45.583Z,5.30
2019-06-10T06:33:37.657Z,6.87
2019-06-10T06:36:04.935Z,3.27
2019-06-10T06:38:36.822Z,5.97
2019-06-10T06:41:05.487Z,2.85
2019-06-10T06:43:38.969Z,5.47
2019-06-10T06:46:05.851Z,4.35
2019-06-10T06:48:38.449Z,3.65
2019-06-10T06:51:08.728Z,6.75
2019-06-10T06:53:45.445Z,5.33
2019-06-10T06:56:12.403Z,7.40
2019-06-10T06:58:43.290Z,5.45
2019-06-10T07:01:14.677Z,5.37
2019-06-10T07:06:57.657Z,3.92
2019-06-10T07:18:48.752Z,3.60
2019-06-10T07:21:13.121Z,3.22
2019-06-10T07:23:46.496Z,6.87
2019-06-10T07:26:12.871Z,5.08
2019-06-10T07:28:46.645Z,4.28
2019-06-10T07:31:23.257Z,2.83
2019-06-10T07:33:46.973Z,7.03
2019-06-10T07:36:15.252Z,3.22
2019-06-10T07:41:24.568Z,4.67
2019-06-10T07:43:53.884Z,4.80
2019-06-10T07:47:02.720Z,4.60
2019-06-10T07:49:33.782Z,3.33
2019-06-10T07:52:19.494Z,2.27
2019-06-10T07:55:05.109Z,11.63
2019-06-10T07:57:35.665Z,4.47
2019-06-10T08:00:16.712Z,4.28
2019-06-10T08:05:23.393Z,2.95
2019-06-10T08:13:08.487Z,3.58
2019-06-10T08:15:37.802Z,3.55
2019-06-10T08:18:25.977Z,5.50
2019-06-10T08:20:55.434Z,4.60
2019-06-10T08:23:24.870Z,5.08
2019-06-10T08:26:13.133Z,2.70
2019-06-10T08:28:46.365Z,4.53
2019-06-10T08:31:13.439Z,4.42
2019-06-10T08:33:46.227Z,4.33
2019-06-10T08:36:13.891Z,4.97
2019-06-10T08:38:45.328Z,1.62
2019-06-10T08:41:14.298Z,2.98
2019-06-10T08:43:45.567Z,5.33
2019-06-10T08:46:15.535Z,4.00
2019-06-10T08:49:03.874Z,3.22
2019-06-10T08:51:33.188Z,2.75
2019-06-10T08:54:02.603Z,2.85
2019-06-10T08:56:54.124Z,1.42
2019-06-10T08:59:23.089Z,3.10
2019-06-10T09:01:56.873Z,5.53
2019-06-10T09:04:24.401Z,1.65
2019-06-10T09:06:53.967Z,3.15
2019-06-10T09:09:24.765Z,1.82
2019-06-10T09:11:54.813Z,7.45
2019-06-10T09:14:25.139Z,3.58
2019-06-10T09:19:47.891Z,2.02
2019-06-10T09:22:15.873Z,3.25
2019-06-10T09:24:49.045Z,2.20
2019-06-10T09:27:16.359Z,0.95
2019-06-10T09:29:49.227Z,3.17
2019-06-10T09:32:16.779Z,2.15
2019-06-10T09:37:23.366Z,1.50
2019-06-10T09:39:59.060Z,2.80
2019-06-10T09:45:33.235Z,2.67
2019-06-10T09:51:12.534Z,1.47
2019-06-10T09:53:52.441Z,0.75
2019-06-10T09:56:26.271Z,1.67
2019-06-10T09:59:14.568Z,1.62
2019-06-10T10:01:48.456Z,2.10
2019-06-10T10:04:15.254Z,0.95
2019-06-10T10:07:23.868Z,1.45
2019-06-10T10:10:32.798Z,2.52
2019-06-10T10:13:02.701Z,4.47
2019-06-10T10:15:34.503Z,2.42
2019-06-10T10:21:03.033Z,3.67
2019-06-10T10:23:48.400Z,2.22
2019-06-10T10:26:03.465Z,2.80
2019-06-10T10:28:33.618Z,1.82
2019-06-10T10:31:04.747Z,2.10
2019-06-10T10:33:34.996Z,5.58
2019-06-10T10:36:04.334Z,3.17
2019-06-10T10:38:34.847Z,2.77
2019-06-10T10:41:24.246Z,3.87
2019-06-10T10:43:57.796Z,1.82
2019-06-10T10:46:25.674Z,3.08
2019-06-10T10:48:56.494Z,1.22
2019-06-10T10:54:21.204Z,2.75
2019-06-10T10:56:33.400Z,1.27
2019-06-10T10:59:02.584Z,1.92
2019-06-10T11:01:33.397Z,1.30
2019-06-10T11:04:03.866Z,1.82
2019-06-10T11:06:34.043Z,2.12
2019-06-10T11:09:03.514Z,4.05
2019-06-10T11:11:33.376Z,2.80
2019-06-10T11:17:05.530Z,1.98
2019-06-10T11:19:55.785Z,0.70
2019-06-10T11:25:00.331Z,4.10
2019-06-10T11:27:30.909Z,5.08
2019-06-10T11:32:57.237Z,4.33
2019-06-10T11:38:14.780Z,1.82
2019-06-10T11:43:33.076Z,3.75
2019-06-10T11:46:07.400Z,2.08
2019-06-10T11:48:34.393Z,2.05
2019-06-10T11:51:04.743Z,2.67
2019-06-10T11:53:34.993Z,2.00
2019-06-10T11:56:04.419Z,3.83
2019-06-10T11:58:54.944Z,2.00
2019-06-10T12:01:23.850Z,2.00
2019-06-10T12:03:55.877Z,2.20
2019-06-10T12:06:24.335Z,1.10
2019-06-10T12:11:28.652Z,1.52
2019-06-10T12:14:02.877Z,2.33
2019-06-10T12:21:49.754Z,1.95
2019-06-10T12:24:19.501Z,0.95
2019-06-10T12:26:49.818Z,0.85
2019-06-10T12:29:22.430Z,1.02
2019-06-10T12:31:54.082Z,2.15
2019-06-10T12:34:22.810Z,0.72
2019-06-10T12:36:56.396Z,1.55
2019-06-10T12:39:24.529Z,2.52
2019-06-10T12:41:56.692Z,4.17
2019-06-10T12:44:24.875Z,1.02
2019-06-10T12:46:57.908Z,0.57
2019-06-10T12:49:25.243Z,2.05
2019-06-10T12:51:55.846Z,1.07
2019-06-10T12:54:26.187Z,0.82
2019-06-10T12:56:58.001Z,1.00
2019-06-10T12:59:27.630Z,1.05
2019-06-10T13:01:58.054Z,0.50
2019-06-10T13:04:27.981Z,1.02
2019-06-10T13:07:36.625Z,1.37
2019-06-10T13:10:26.544Z,2.05
2019-06-10T13:12:55.941Z,0.82
2019-06-10T13:15:25.255Z,1.72
2019-06-10T13:17:56.061Z,0.70
2019-06-10T13:20:25.698Z,1.55
2019-06-10T13:22:56.219Z,3.10
2019-06-10T13:28:14.475Z,0.62
2019-06-10T13:30:43.803Z,0.50
2019-06-10T13:33:14.695Z,2.30
2019-06-10T13:38:19.407Z,1.10
2019-06-10T13:40:48.727Z,0.53
2019-06-10T13:43:18.054Z,1.27
2019-06-10T13:45:47.372Z,0.75
2019-06-10T13:48:16.737Z,2.45
2019-06-10T13:50:46.037Z,1.37
2019-06-10T13:53:15.361Z,1.25
2019-06-10T13:55:44.687Z,0.70
2019-06-10T13:58:14.676Z,1.80
2019-06-10T14:00:56.333Z,2.72
2019-06-10T14:03:25.646Z,1.40
2019-06-10T14:05:58.557Z,0.47
2019-06-10T14:08:26.064Z,0.93
2019-06-10T14:10:55.438Z,1.15
2019-06-10T14:13:24.748Z,1.47
2019-06-10T14:15:54.591Z,1.72
2019-06-10T14:18:25.161Z,0.40
2019-06-10T14:20:54.556Z,1.52
2019-06-10T14:23:23.875Z,1.55
2019-06-10T14:25:53.533Z,1.35
2019-06-10T14:28:39.054Z,2.08
2019-06-10T14:30:55.342Z,1.62
2019-06-10T14:33:24.653Z,2.47
2019-06-10T14:35:54.024Z,3.60
2019-06-10T14:38:23.398Z,3.00
2019-06-10T14:40:52.800Z,1.57
2019-06-10T14:43:23.221Z,0.68
2019-06-10T14:45:53.658Z,2.45
2019-06-10T14:48:24.328Z,0.70
2019-06-10T14:50:53.740Z,0.82
2019-06-10T14:53:23.344Z,1.30
2019-06-10T14:55:54.206Z,1.75
2019-06-10T14:58:23.545Z,1.02
2019-06-10T15:00:54.269Z,0.98
2019-06-10T15:03:23.977Z,0.90
2019-06-10T15:05:53.434Z,1.70
2019-06-10T15:08:23.242Z,0.40
2019-06-10T15:10:53.769Z,2.95
2019-06-10T15:13:23.762Z,1.02
2019-06-10T15:15:54.390Z,1.95
2019-06-10T15:18:24.091Z,1.27
2019-06-10T15:20:54.917Z,1.00
2019-06-10T15:23:24.399Z,2.77
2019-06-10T15:25:56.844Z,1.42
2019-06-10T15:28:24.848Z,3.67
2019-06-10T15:30:54.188Z,1.27
2019-06-10T15:33:24.064Z,1.42
2019-06-10T15:35:54.631Z,1.87
2019-06-10T15:38:32.790Z,1.10
2019-06-10T15:43:37.951Z,1.62
2019-06-10T15:46:07.359Z,1.85
2019-06-10T15:48:36.723Z,2.20
2019-06-10T15:51:06.062Z,2.08
2019-06-10T15:53:35.475Z,1.65
2019-06-10T15:56:14.430Z,0.65
2019-06-10T15:58:35.871Z,0.70
2019-06-10T16:01:05.230Z,3.52
2019-06-10T16:03:34.772Z,0.80
2019-06-10T16:08:39.133Z,2.70
2019-06-10T16:11:08.535Z,0.88
2019-06-10T16:13:37.937Z,1.27
2019-06-10T16:16:07.271Z,0.90
2019-06-10T16:18:36.576Z,0.70
2019-06-10T16:21:05.891Z,3.70
2019-06-10T16:23:35.187Z,1.50
2019-06-10T16:26:04.519Z,2.92
2019-06-10T16:28:33.823Z,4.30
2019-06-10T16:31:03.141Z,0.68
2019-06-10T16:33:33.863Z,1.87
2019-06-10T16:36:03.583Z,2.77
2019-06-10T16:39:13.089Z,1.07
2019-06-10T16:41:43.014Z,0.70
2019-06-10T16:50:34.362Z,0.93
2019-06-10T16:53:03.704Z,1.72
2019-06-10T16:55:33.461Z,2.15
2019-06-10T16:58:02.970Z,3.72
2019-06-10T17:00:34.740Z,1.10
2019-06-10T17:03:15.191Z,1.67
2019-06-10T17:05:44.715Z,0.72
2019-06-10T17:08:14.025Z,1.40
2019-06-10T17:10:43.711Z,1.87
2019-06-10T17:16:03.637Z,3.95
2019-06-10T17:18:34.308Z,0.85
2019-06-10T17:21:04.259Z,1.17
2019-06-10T17:23:36.593Z,2.08
2019-06-10T17:26:05.962Z,1.42
2019-06-10T17:28:36.847Z,2.05
2019-06-10T17:31:06.422Z,1.40
2019-06-10T17:33:36.217Z,1.27
2019-06-10T17:36:07.921Z,0.53
2019-06-10T17:38:37.353Z,1.22
2019-06-10T17:43:42.912Z,0.93
2019-06-10T17:46:16.801Z,0.57
2019-06-10T17:49:05.154Z,2.00
2019-06-10T17:51:35.692Z,2.62
2019-06-10T17:54:05.518Z,4.40
2019-06-10T17:56:36.318Z,1.22
2019-06-10T17:59:05.870Z,1.67
2019-06-10T18:01:35.665Z,2.90
2019-06-10T18:04:18.119Z,1.15
2019-06-10T18:06:58.888Z,1.75
2019-06-10T18:09:28.231Z,1.42
2019-06-10T18:11:57.519Z,0.70
2019-06-10T18:14:28.051Z,1.42
2019-06-10T18:16:57.860Z,1.52
2019-06-10T18:19:28.276Z,1.25
2019-06-10T18:21:58.300Z,1.37
2019-06-10T18:24:29.265Z,2.42
2019-06-10T18:26:58.739Z,1.55
2019-06-10T18:29:29.165Z,0.78
2019-06-10T18:31:59.055Z,0.62
2019-06-10T18:34:29.733Z,0.72
2019-06-10T18:36:59.562Z,1.17
2019-06-10T18:39:29.381Z,2.52
2019-06-10T18:41:59.949Z,0.65
2019-06-10T18:44:29.741Z,1.35
2019-06-10T18:47:02.802Z,2.12
2019-06-10T18:49:33.983Z,3.75
2019-06-10T18:52:02.511Z,2.58
2019-06-10T18:54:35.651Z,0.95
2019-06-10T18:57:04.824Z,1.57
2019-06-10T19:02:22.795Z,0.60
2019-06-10T19:04:54.701Z,2.12
2019-06-10T19:07:24.722Z,0.85
2019-06-10T19:09:54.037Z,2.52
2019-06-10T19:12:42.633Z,1.50
2019-06-10T19:18:15.535Z,1.47
2019-06-10T19:20:45.248Z,1.62
2019-06-10T19:23:16.519Z,0.68
2019-06-10T19:25:46.704Z,2.60
2019-06-10T19:28:16.042Z,2.27
2019-06-10T19:31:04.394Z,0.82
2019-06-10T19:33:36.420Z,0.55
2019-06-10T19:36:04.809Z,2.08
2019-06-10T19:38:35.499Z,1.05
2019-06-10T19:41:05.186Z,0.75
2019-06-10T19:46:23.432Z,1.98
2019-06-10T19:48:59.545Z,2.15
2019-06-10T19:51:24.879Z,1.45
2019-06-10T19:56:43.735Z,1.02
2019-06-10T19:59:13.553Z,2.90
2019-06-10T20:01:47.895Z,1.67
2019-06-10T20:04:17.862Z,1.40
2019-06-10T20:06:50.416Z,1.65
2019-06-10T20:09:16.499Z,3.22
2019-06-10T20:11:47.422Z,2.42
2019-06-10T20:14:17.051Z,0.95
2019-06-10T20:16:46.492Z,1.62
2019-06-10T20:19:35.715Z,1.70
2019-06-10T20:22:05.772Z,1.07
2019-06-10T20:24:36.344Z,2.72
2019-06-10T20:27:06.191Z,2.83
2019-06-10T20:29:35.771Z,1.47
2019-06-10T20:32:06.572Z,1.32
2019-06-10T20:34:37.052Z,2.02
2019-06-10T20:37:07.014Z,2.20
2019-06-10T20:39:36.348Z,0.95
2019-06-10T20:42:05.767Z,1.52
2019-06-10T20:44:35.070Z,1.42
2019-06-10T20:47:04.509Z,0.60
2019-06-10T20:49:34.096Z,0.88
2019-06-10T20:52:10.784Z,1.65
2019-06-10T20:54:34.454Z,0.78
2019-06-10T20:57:04.336Z,0.65
2019-06-10T20:59:34.764Z,2.55
2019-06-10T21:02:04.045Z,1.77
2019-06-10T21:04:34.212Z,3.28
2019-06-10T21:10:05.317Z,2.45
2019-06-10T21:12:34.606Z,1.52
2019-06-10T21:15:03.919Z,0.70
2019-06-10T21:17:33.406Z,0.82
2019-06-10T21:20:03.376Z,1.55
2019-06-10T21:22:33.756Z,2.07
2019-06-10T21:25:03.056Z,2.53
2019-06-10T21:27:32.834Z,1.67
2019-06-10T21:30:11.132Z,2.43
2019-06-10T21:32:34.466Z,0.72
2019-06-10T21:37:52.194Z,2.60
2019-06-10T21:40:21.467Z,3.42
2019-06-10T21:42:52.811Z,2.70
2019-06-10T21:45:22.892Z,0.93
2019-06-10T21:47:54.259Z,1.87
2019-06-10T21:50:23.962Z,1.07
2019-06-10T21:52:54.678Z,1.43
2019-06-10T21:55:24.271Z,0.70
2019-06-10T21:57:55.171Z,0.80
2019-06-10T22:03:20.381Z,0.82
2019-06-10T22:05:49.664Z,1.00
2019-06-10T22:08:19.015Z,0.88
2019-06-10T22:10:48.309Z,0.80
2019-06-10T22:13:17.592Z,5.55
2019-06-10T22:15:48.020Z,2.05
2019-06-10T22:18:17.914Z,1.40
2019-06-10T22:20:48.809Z,1.02
2019-06-10T22:23:18.259Z,0.80
2019-06-10T22:25:48.760Z,0.78
2019-06-10T22:28:18.707Z,1.33
2019-06-10T22:30:49.038Z,0.90
2019-06-10T22:33:19.085Z,1.85
2019-06-10T22:35:49.528Z,1.20
2019-06-10T22:38:19.420Z,2.00
2019-06-10T22:40:48.904Z,1.03
2019-06-10T22:43:18.211Z,1.47
2019-06-10T22:45:47.493Z,0.78
2019-06-10T22:48:16.797Z,2.83
2019-06-10T22:50:46.941Z,3.42
2019-06-10T22:53:17.130Z,1.67
2019-06-10T22:55:46.431Z,1.97
2019-06-10T22:58:15.723Z,1.07
2019-06-10T23:00:45.051Z,4.07
2019-06-10T23:03:14.323Z,0.87
2019-06-10T23:05:43.661Z,1.70
2019-06-10T23:08:13.007Z,0.60
2019-06-10T23:13:30.724Z,2.35
2019-06-10T23:16:02.492Z,2.20
2019-06-10T23:18:32.083Z,1.77
2019-06-10T23:21:04.377Z,3.93
2019-06-10T23:23:33.076Z,1.50
2019-06-10T23:26:02.989Z,1.83
2019-06-10T23:28:33.446Z,2.27
2019-06-10T23:31:05.233Z,5.20
2019-06-10T23:33:33.803Z,3.23
2019-06-10T23:36:04.057Z,0.87
2019-06-10T23:38:34.163Z,2.60
2019-06-10T23:41:22.533Z,1.00
2019-06-10T23:43:53.025Z,1.97
2019-06-10T23:46:22.861Z,1.10
2019-06-10T23:48:53.225Z,1.90
2019-06-10T23:51:23.147Z,1.43
2019-06-10T23:56:42.700Z,2.83
2019-06-10T23:59:12.125Z,1.67
